Time;durP1;ratioP1;P1;durP2;ratioP2;P2;SDS_P1;SDS_P2;PMS_P1;PMS_P2;Temp;Humidity;BMP_temperature;BMP_pressure;BME280_temperature;BME280_humidity;BME280_pressure;Samples;Min_cycle;Max_cycle;Signal;HPM_P1;HPM_P2
2023/05/13 00:01:22;;;;;;;;;;;;;;;10.57;48.20;100140.06;5071573;28;19904;-77
2023/05/13 00:03:48;;;;;;;;;;;;;;;10.61;49.26;100135.28;5071556;28;19962;-78
2023/05/13 00:06:13;;;;;;;;;;;;;;;10.63;48.97;100128.84;5071735;28;20299;-77
2023/05/13 00:08:38;;;;;;;;;;;;;;;10.68;47.67;100123.06;5071864;28;19916;-76
2023/05/13 00:11:04;;;;;;;;;;;;;;;10.68;47.81;100120.41;5071740;28;19908;-77
2023/05/13 00:13:29;;;;;;;;;;;;;;;10.65;48.61;100121.56;5071852;28;19942;-77
2023/05/13 00:15:54;;;;;;;;;;;;;;;10.63;48.98;100123.56;5071460;28;19912;-77
2023/05/13 00:18:20;;;;;;;;;;;;;;;10.65;48.64;100116.28;5071404;28;19991;-77
2023/05/13 00:20:45;;;;;;;;;;;;;;;10.73;47.92;100118.13;5070355;28;19915;-77
2023/05/13 00:23:10;;;;;;;;;;;;;;;10.72;48.24;100103.25;5071666;28;19916;-77
2023/05/13 00:25:36;;;;;;;;;;;;;;;10.72;48.82;100103.25;5071685;28;20311;-77
2023/05/13 00:28:01;;;;;;;;;;;;;;;10.69;47.98;100114.16;5071567;28;19925;-77
2023/05/13 00:30:26;;;;;;;;;;;;;;;10.60;48.73;100115.13;5071355;28;20458;-77
2023/05/13 00:32:52;;;;;;;;;;;;;;;10.53;48.11;100114.97;5071387;28;19914;-77
2023/05/13 00:35:17;;;;;;;;;;;;;;;10.46;49.20;100112.16;5071572;28;20355;-77
2023/05/13 00:37:42;;;;;;;;;;;;;;;10.41;48.80;100117.09;5071311;28;19913;-77
2023/05/13 00:40:16;;;;;;;;;;;;;;;10.43;48.38;100123.03;5071426;28;19909;-78
2023/05/13 00:42:41;;;;;;;;;;;;;;;10.42;48.88;100128.47;5070136;28;19915;-77
2023/05/13 00:45:07;;;;;;;;;;;;;;;10.40;48.24;100120.72;5071486;28;19909;-77
2023/05/13 00:47:32;;;;;;;;;;;;;;;10.39;48.85;100124.31;5071109;28;19973;-77
2023/05/13 00:49:57;;;;;;;;;;;;;;;10.36;48.77;100123.81;5071503;28;19973;-78
2023/05/13 00:52:22;;;;;;;;;;;;;;;10.25;48.24;100132.88;5070293;28;20376;-77
2023/05/13 00:54:48;;;;;;;;;;;;;;;10.29;48.85;100138.66;5071692;28;19908;-77
2023/05/13 00:57:13;;;;;;;;;;;;;;;10.28;49.02;100148.38;5071231;28;20007;-77
2023/05/13 00:59:39;;;;;;;;;;;;;;;10.25;48.63;100156.63;5071636;28;19915;-77
2023/05/13 01:02:04;;;;;;;;;;;;;;;10.13;49.14;100149.97;5071323;28;19912;-77
2023/05/13 01:04:47;;;;;;;;;;;;;;;10.03;48.61;100149.28;5071166;28;20400;-78
2023/05/13 01:07:28;;;;;;;;;;;;;;;9.89;49.37;100148.06;5069715;28;19916;-77
2023/05/13 01:10:07;;;;;;;;;;;;;;;9.82;49.40;100155.78;5074698;28;19908;-78
2023/05/13 01:12:34;;;;;;;;;;;;;;;9.73;49.85;100153.28;5074700;28;19908;-78
2023/05/13 01:15:05;;;;;;;;;;;;;;;9.67;50.23;100153.91;5073239;28;19908;-78
2023/05/13 01:17:32;;;;;;;;;;;;;;;9.62;50.20;100156.16;5074762;28;19920;-78
2023/05/13 01:19:59;;;;;;;;;;;;;;;9.57;49.59;100169.81;5074508;28;19991;-76
2023/05/13 01:22:24;;;;;;;;;;;;;;;9.49;49.94;100167.94;5074636;28;19961;-78
2023/05/13 01:24:50;;;;;;;;;;;;;;;9.48;49.72;100176.00;5074704;28;19908;-78
2023/05/13 01:27:15;;;;;;;;;;;;;;;9.47;50.31;100163.81;5074341;28;19923;-77
2023/05/13 01:29:41;;;;;;;;;;;;;;;9.51;50.01;100165.16;5074412;28;20450;-77
2023/05/13 01:32:08;;;;;;;;;;;;;;;9.48;49.62;100163.66;5074460;28;19915;-76
2023/05/13 01:34:34;;;;;;;;;;;;;;;9.43;50.67;100162.47;5074314;28;19908;-77
2023/05/13 01:36:59;;;;;;;;;;;;;;;9.41;50.42;100172.34;5074260;28;19913;-77
2023/05/13 01:39:25;;;;;;;;;;;;;;;9.41;50.51;100177.63;5074125;28;20019;-77
2023/05/13 01:41:50;;;;;;;;;;;;;;;9.38;49.64;100186.66;5074140;28;19912;-77
2023/05/13 01:44:16;;;;;;;;;;;;;;;9.33;51.29;100186.28;5073230;28;19908;-76
2023/05/13 01:46:42;;;;;;;;;;;;;;;9.30;50.29;100181.34;5074109;28;19912;-78
2023/05/13 01:49:09;;;;;;;;;;;;;;;9.28;51.02;100180.66;5074136;28;20338;-77
2023/05/13 01:51:35;;;;;;;;;;;;;;;9.27;51.39;100186.91;5074198;28;20308;-77
2023/05/13 01:54:00;;;;;;;;;;;;;;;9.32;50.27;100200.44;5073980;28;19916;-77
2023/05/13 01:56:26;;;;;;;;;;;;;;;9.32;50.93;100205.72;5073874;28;19912;-77
2023/05/13 01:58:51;;;;;;;;;;;;;;;9.35;50.81;100200.13;5073980;28;19919;-78
2023/05/13 02:01:16;;;;;;;;;;;;;;;9.38;50.41;100201.63;5073753;28;19908;-77
2023/05/13 02:03:41;;;;;;;;;;;;;;;9.37;50.58;100207.91;5073605;28;19912;-77
2023/05/13 02:06:07;;;;;;;;;;;;;;;9.43;49.86;100207.28;5072556;28;19931;-76
2023/05/13 02:08:32;;;;;;;;;;;;;;;9.44;50.34;100203.66;5072569;28;19908;-77
2023/05/13 02:10:58;;;;;;;;;;;;;;;9.44;51.01;100198.38;5073884;28;19990;-77
2023/05/13 02:13:23;;;;;;;;;;;;;;;9.42;51.13;100198.53;5073585;28;20373;-77
2023/05/13 02:15:49;;;;;;;;;;;;;;;9.49;50.19;100196.13;5073553;28;19919;-76
2023/05/13 02:18:14;;;;;;;;;;;;;;;9.45;51.09;100197.41;5073516;28;19908;-77
2023/05/13 02:20:39;;;;;;;;;;;;;;;9.44;51.37;100201.03;5072554;28;19918;-77
2023/05/13 02:23:05;;;;;;;;;;;;;;;9.45;50.26;100203.50;5073274;28;19958;-77
2023/05/13 02:25:30;;;;;;;;;;;;;;;9.44;50.35;100207.13;5073418;28;20377;-77
2023/05/13 02:27:55;;;;;;;;;;;;;;;9.44;50.81;100203.66;5073139;28;19924;-77
2023/05/13 02:30:25;;;;;;;;;;;;;;;9.37;51.02;100203.44;5073250;28;19916;-78
2023/05/13 02:32:50;;;;;;;;;;;;;;;9.36;50.89;100204.44;5071805;28;19916;-77
2023/05/13 02:35:16;;;;;;;;;;;;;;;9.40;50.85;100202.31;5073214;28;19909;-77
2023/05/13 02:37:41;;;;;;;;;;;;;;;9.32;51.29;100205.72;5073042;28;19952;-78
2023/05/13 02:40:06;;;;;;;;;;;;;;;9.23;50.99;100194.28;5073097;28;19908;-77
2023/05/13 02:42:32;;;;;;;;;;;;;;;9.18;51.40;100201.84;5071776;28;19955;-77
2023/05/13 02:44:57;;;;;;;;;;;;;;;9.14;51.08;100199.66;5073054;28;20003;-78
2023/05/13 02:47:22;;;;;;;;;;;;;;;9.12;51.26;100198.97;5072946;28;19915;-76
2023/05/13 02:49:47;;;;;;;;;;;;;;;9.10;51.36;100204.41;5073057;28;19908;-77
2023/05/13 02:52:13;;;;;;;;;;;;;;;9.09;51.97;100194.00;5072848;28;19908;-77
2023/05/13 02:54:38;;;;;;;;;;;;;;;9.05;51.51;100198.75;5072607;28;20379;-78
2023/05/13 02:57:03;;;;;;;;;;;;;;;9.01;52.00;100189.50;5072716;28;19977;-77
2023/05/13 02:59:29;;;;;;;;;;;;;;;8.97;52.28;100192.59;5072613;28;19908;-77
2023/05/13 03:01:54;;;;;;;;;;;;;;;8.93;52.02;100193.88;5072716;28;19913;-78
2023/05/13 03:04:19;;;;;;;;;;;;;;;8.91;51.66;100191.38;5072637;28;20370;-78
2023/05/13 03:06:45;;;;;;;;;;;;;;;8.89;51.51;100190.69;5071345;28;19915;-77
2023/05/13 03:09:10;;;;;;;;;;;;;;;8.83;52.51;100189.50;5072590;28;20355;-78
2023/05/13 03:11:35;;;;;;;;;;;;;;;8.84;51.84;100193.78;5072377;28;19912;-77
2023/05/13 03:14:00;;;;;;;;;;;;;;;8.91;51.03;100204.53;5071064;28;19912;-77
2023/05/13 03:16:26;;;;;;;;;;;;;;;8.93;52.47;100210.50;5072495;28;19912;-78
2023/05/13 03:18:51;;;;;;;;;;;;;;;8.93;51.51;100212.31;5071027;28;19916;-77
2023/05/13 03:21:16;;;;;;;;;;;;;;;8.88;51.81;100225.91;5070942;28;19909;-77
2023/05/13 03:23:41;;;;;;;;;;;;;;;8.83;51.67;100229.00;5072237;28;19912;-77
2023/05/13 03:26:07;;;;;;;;;;;;;;;8.76;51.54;100238.47;5072350;28;19916;-77
2023/05/13 03:28:32;;;;;;;;;;;;;;;8.78;51.72;100249.66;5072242;28;20396;-77
2023/05/13 03:30:57;;;;;;;;;;;;;;;8.78;52.34;100254.94;5070699;28;19914;-77
2023/05/13 03:33:23;;;;;;;;;;;;;;;8.77;51.73;100253.28;5071982;28;20305;-77
2023/05/13 03:35:48;;;;;;;;;;;;;;;8.72;53.17;100262.59;5071779;28;19916;-78
2023/05/13 03:38:13;;;;;;;;;;;;;;;8.68;52.38;100255.97;5071790;28;19915;-76
2023/05/13 03:40:39;;;;;;;;;;;;;;;8.64;52.74;100265.97;5071926;28;19958;-78
2023/05/13 03:43:04;;;;;;;;;;;;;;;8.65;52.68;100262.38;5072021;28;19908;-76
2023/05/13 03:45:30;;;;;;;;;;;;;;;8.67;52.35;100263.06;5072135;28;19918;-78
2023/05/13 03:47:55;;;;;;;;;;;;;;;8.63;52.99;100261.69;5072021;28;19915;-77
2023/05/13 03:50:20;;;;;;;;;;;;;;;8.69;52.94;100262.91;5071898;28;19908;-77
2023/05/13 03:52:46;;;;;;;;;;;;;;;8.77;52.49;100265.63;5071774;28;20649;-77
2023/05/13 03:55:13;;;;;;;;;;;;;;;8.86;53.50;100264.72;5071762;28;19908;-77
2023/05/13 03:57:38;;;;;;;;;;;;;;;8.88;54.13;100268.88;5071949;28;19912;-77
2023/05/13 04:00:04;;;;;;;;;;;;;;;8.98;53.34;100270.63;5072012;28;19915;-76
2023/05/13 04:02:29;;;;;;;;;;;;;;;9.05;52.12;100280.41;5071955;28;19908;-77
2023/05/13 04:04:54;;;;;;;;;;;;;;;8.97;52.80;100297.94;5070529;28;19908;-78
2023/05/13 04:07:20;;;;;;;;;;;;;;;9.00;53.52;100287.94;5071841;28;20021;-78
2023/05/13 04:09:45;;;;;;;;;;;;;;;9.08;53.45;100287.19;5070382;28;19908;-77
2023/05/13 04:12:10;;;;;;;;;;;;;;;9.10;53.92;100283.44;5071930;28;19909;-77
2023/05/13 04:14:35;;;;;;;;;;;;;;;9.08;52.29;100288.03;5071560;28;20348;-76
2023/05/13 04:17:01;;;;;;;;;;;;;;;9.14;52.87;100283.97;5070651;28;19916;-76
2023/05/13 04:19:26;;;;;;;;;;;;;;;9.27;52.35;100280.94;5071585;28;20332;-77
2023/05/13 04:21:51;;;;;;;;;;;;;;;9.33;52.62;100280.34;5071726;28;19999;-78
2023/05/13 04:24:16;;;;;;;;;;;;;;;9.42;52.62;100267.06;5071586;28;19909;-77
2023/05/13 04:26:42;;;;;;;;;;;;;;;9.49;53.74;100268.09;5071775;28;19965;-77
2023/05/13 04:29:07;;;;;;;;;;;;;;;9.60;52.37;100269.66;5071428;28;19916;-77
2023/05/13 04:31:32;;;;;;;;;;;;;;;9.68;52.87;100272.41;5071472;28;19908;-77
2023/05/13 04:33:57;;;;;;;;;;;;;;;9.73;52.07;100279.84;5071554;28;19931;-77
2023/05/13 04:36:23;;;;;;;;;;;;;;;9.79;52.15;100290.59;5071370;28;19913;-76
2023/05/13 04:38:48;;;;;;;;;;;;;;;9.87;52.22;100281.91;5071637;28;19912;-77
2023/05/13 04:41:13;;;;;;;;;;;;;;;9.94;52.25;100290.84;5071386;28;19916;-77
2023/05/13 04:43:38;;;;;;;;;;;;;;;10.03;51.60;100297.84;5072342;28;20306;-76
2023/05/13 04:46:04;;;;;;;;;;;;;;;10.04;51.89;100299.50;5073918;28;20007;-76
2023/05/13 04:48:29;;;;;;;;;;;;;;;10.09;51.55;100293.75;5075109;28;19919;-77
2023/05/13 04:50:55;;;;;;;;;;;;;;;10.11;53.32;100300.53;5075069;28;19909;-78
2023/05/13 04:53:20;;;;;;;;;;;;;;;10.17;52.90;100299.06;5073734;28;19908;-78
2023/05/13 04:55:47;;;;;;;;;;;;;;;10.25;52.96;100306.22;5073695;28;19943;-78
2023/05/13 04:58:12;;;;;;;;;;;;;;;10.34;54.38;100286.81;5073584;28;19994;-78
2023/05/13 05:00:37;;;;;;;;;;;;;;;10.37;53.86;100295.25;5073561;28;19954;-78
2023/05/13 05:03:02;;;;;;;;;;;;;;;10.48;53.19;100294.16;5073548;28;19908;-78
2023/05/13 05:05:28;;;;;;;;;;;;;;;10.61;53.92;100301.63;5074818;28;19914;-78
2023/05/13 05:07:53;;;;;;;;;;;;;;;10.68;53.03;100298.19;5074841;28;19908;-78
2023/05/13 05:10:18;;;;;;;;;;;;;;;10.76;53.91;100310.59;5073544;28;20394;-76
2023/05/13 05:12:43;;;;;;;;;;;;;;;10.87;53.52;100314.75;5074894;28;19912;-78
2023/05/13 05:15:14;;;;;;;;;;;;;;;10.98;53.63;100322.38;5074764;28;19987;-79
2023/05/13 05:17:40;;;;;;;;;;;;;;;11.06;54.21;100317.13;5074473;28;20350;-78
2023/05/13 05:20:05;;;;;;;;;;;;;;;11.11;54.40;100330.66;5074551;28;19908;-77
2023/05/13 05:22:31;;;;;;;;;;;;;;;11.14;52.91;100327.69;5074455;28;20375;-78
2023/05/13 05:24:56;;;;;;;;;;;;;;;11.16;54.18;100320.47;5074576;28;19908;-77
2023/05/13 05:27:21;;;;;;;;;;;;;;;11.23;54.00;100318.81;5074364;28;19916;-77
2023/05/13 05:29:47;;;;;;;;;;;;;;;11.32;54.88;100320.47;5073176;28;20003;-77
2023/05/13 05:32:12;;;;;;;;;;;;;;;11.34;54.52;100323.78;5074343;28;20381;-77
2023/05/13 05:34:37;;;;;;;;;;;;;;;11.42;53.36;100323.78;5074466;28;19900;-78
2023/05/13 05:37:03;;;;;;;;;;;;;;;11.52;53.40;100325.44;5072989;28;19920;-77
2023/05/13 05:39:28;;;;;;;;;;;;;;;11.59;53.08;100331.72;5074542;28;19908;-78
2023/05/13 05:41:53;;;;;;;;;;;;;;;11.61;53.89;100337.69;5074002;28;19915;-77
2023/05/13 05:44:18;;;;;;;;;;;;;;;11.67;53.51;100332.56;5074069;28;19908;-79
2023/05/13 05:46:44;;;;;;;;;;;;;;;11.74;52.59;100330.06;5074233;28;19916;-77
2023/05/13 05:49:09;;;;;;;;;;;;;;;11.75;55.25;100323.78;5074134;28;19909;-78
2023/05/13 05:51:34;;;;;;;;;;;;;;;11.80;54.59;100320.69;5073961;28;19909;-77
2023/05/13 05:54:00;;;;;;;;;;;;;;;11.79;55.33;100325.16;5072998;28;19909;-78
2023/05/13 05:56:25;;;;;;;;;;;;;;;11.77;54.80;100335.03;5073635;28;19917;-77
2023/05/13 05:58:51;;;;;;;;;;;;;;;11.81;54.66;100338.22;5074038;28;19916;-78
2023/05/13 06:01:16;;;;;;;;;;;;;;;11.85;54.94;100323.66;5073853;28;19962;-77
2023/05/13 06:03:41;;;;;;;;;;;;;;;11.90;54.44;100319.53;5074120;28;19916;-78
2023/05/13 06:06:06;;;;;;;;;;;;;;;11.94;54.99;100328.78;5073718;28;19961;-77
2023/05/13 06:08:32;;;;;;;;;;;;;;;11.98;54.82;100324.00;5073763;28;19934;-77
2023/05/13 06:10:57;;;;;;;;;;;;;;;12.01;54.84;100318.38;5073726;28;19915;-77
2023/05/13 06:13:22;;;;;;;;;;;;;;;12.03;56.25;100321.66;5072383;28;19908;-77
2023/05/13 06:15:48;;;;;;;;;;;;;;;12.08;56.14;100322.81;5073512;28;19912;-78
2023/05/13 06:18:13;;;;;;;;;;;;;;;12.17;55.24;100317.50;5073367;28;20102;-77
2023/05/13 06:20:38;;;;;;;;;;;;;;;12.25;55.22;100313.00;5072436;28;19915;-78
2023/05/13 06:23:04;;;;;;;;;;;;;;;12.32;54.80;100308.69;5073459;28;20376;-78
2023/05/13 06:25:29;;;;;;;;;;;;;;;12.39;53.17;100301.72;5073395;28;20003;-78
2023/05/13 06:27:55;;;;;;;;;;;;;;;12.48;55.02;100299.03;5073362;28;19920;-78
2023/05/13 06:30:22;;;;;;;;;;;;;;;12.55;54.03;100297.34;5073183;28;20373;-78
2023/05/13 06:32:47;;;;;;;;;;;;;;;12.62;54.27;100301.78;5072021;28;19901;-77
2023/05/13 06:35:12;;;;;;;;;;;;;;;12.75;52.16;100297.78;5073510;28;19958;-79
2023/05/13 06:37:37;;;;;;;;;;;;;;;12.86;53.57;100298.22;5071700;28;19912;-78
2023/05/13 06:40:03;;;;;;;;;;;;;;;12.96;53.64;100292.69;5073116;28;19908;-78
2023/05/13 06:42:28;;;;;;;;;;;;;;;13.05;54.06;100302.25;5073195;28;19935;-78
2023/05/13 06:44:53;;;;;;;;;;;;;;;13.12;53.47;100308.47;5073045;28;19995;-78
2023/05/13 06:47:19;;;;;;;;;;;;;;;13.23;54.02;100320.53;5071825;28;19909;-78
2023/05/13 06:49:44;;;;;;;;;;;;;;;13.31;54.59;100328.44;5073294;28;20391;-78
2023/05/13 06:52:09;;;;;;;;;;;;;;;13.43;54.88;100331.53;5072810;28;19960;-78
2023/05/13 06:54:34;;;;;;;;;;;;;;;13.53;53.58;100326.81;5072621;28;19908;-77
2023/05/13 06:57:00;;;;;;;;;;;;;;;13.63;51.92;100332.72;5073259;28;19919;-78
2023/05/13 06:59:25;;;;;;;;;;;;;;;13.70;53.77;100338.13;5072788;28;20448;-79
2023/05/13 07:01:51;;;;;;;;;;;;;;;13.80;52.86;100334.22;5072538;28;19987;-78
2023/05/13 07:04:16;;;;;;;;;;;;;;;13.84;53.22;100330.19;5072349;28;19915;-78
2023/05/13 07:06:41;;;;;;;;;;;;;;;13.90;51.68;100328.66;5072242;28;20009;-79
2023/05/13 07:09:08;;;;;;;;;;;;;;;13.98;52.35;100334.72;5072506;28;20374;-77
2023/05/13 07:11:34;;;;;;;;;;;;;;;14.04;51.33;100330.50;5072476;28;19908;-78
2023/05/13 07:13:59;;;;;;;;;;;;;;;14.09;51.19;100336.09;5071171;28;19915;-78
2023/05/13 07:16:24;;;;;;;;;;;;;;;14.17;51.20;100344.00;5072335;28;20397;-77
2023/05/13 07:18:49;;;;;;;;;;;;;;;14.25;50.60;100328.00;5072186;28;19995;-78
2023/05/13 07:21:15;;;;;;;;;;;;;;;14.29;50.68;100325.78;5070949;28;19908;-77
2023/05/13 07:23:40;;;;;;;;;;;;;;;14.35;50.60;100318.91;5072169;28;20003;-79
2023/05/13 07:26:06;;;;;;;;;;;;;;;14.38;50.75;100315.91;5071011;28;19962;-77
2023/05/13 07:28:31;;;;;;;;;;;;;;;14.48;49.23;100319.97;5070887;28;19920;-78
2023/05/13 07:30:57;;;;;;;;;;;;;;;14.56;48.52;100319.03;5072140;28;19916;-79
2023/05/13 07:33:22;;;;;;;;;;;;;;;14.65;48.34;100325.91;5072270;28;20400;-78
2023/05/13 07:35:47;;;;;;;;;;;;;;;14.77;47.83;100331.56;5072104;28;19901;-79
2023/05/13 07:38:13;;;;;;;;;;;;;;;14.75;48.86;100326.44;5070859;28;19908;-78
2023/05/13 07:40:38;;;;;;;;;;;;;;;14.85;47.80;100321.66;5072150;28;19957;-78
2023/05/13 07:43:03;;;;;;;;;;;;;;;14.94;47.29;100325.88;5070676;28;19908;-78
2023/05/13 07:45:29;;;;;;;;;;;;;;;15.03;46.75;100336.41;5070723;28;20395;-77
2023/05/13 07:47:55;;;;;;;;;;;;;;;15.10;46.06;100337.28;5071906;28;19908;-76
2023/05/13 07:50:20;;;;;;;;;;;;;;;15.14;44.29;100338.56;5071947;28;19915;-78
2023/05/13 07:52:47;;;;;;;;;;;;;;;15.22;45.92;100333.94;5071848;28;19915;-77
2023/05/13 07:55:13;;;;;;;;;;;;;;;15.33;46.17;100321.97;5071822;28;19908;-78
2023/05/13 07:57:38;;;;;;;;;;;;;;;15.40;45.99;100320.22;5071801;28;19912;-77
2023/05/13 08:00:04;;;;;;;;;;;;;;;15.51;46.76;100332.19;5071848;28;19967;-78
2023/05/13 08:02:33;;;;;;;;;;;;;;;15.56;46.69;100313.81;5070384;28;19908;-77
2023/05/13 08:04:58;;;;;;;;;;;;;;;15.70;46.51;100326.28;5071945;28;19908;-78
2023/05/13 08:07:24;;;;;;;;;;;;;;;15.76;46.07;100325.50;5071692;28;20369;-79
2023/05/13 08:09:49;;;;;;;;;;;;;;;15.85;45.79;100323.53;5071719;28;20433;-77
2023/05/13 08:12:14;;;;;;;;;;;;;;;15.96;45.87;100306.19;5071686;28;19908;-77
2023/05/13 08:14:39;;;;;;;;;;;;;;;16.08;45.74;100305.44;5070470;28;19919;-78
2023/05/13 08:17:06;;;;;;;;;;;;;;;16.20;45.42;100300.41;5071471;28;19997;-77
2023/05/13 08:19:31;;;;;;;;;;;;;;;16.29;45.64;100293.88;5075538;28;19947;-77
2023/05/13 08:21:57;;;;;;;;;;;;;;;16.37;45.81;100298.25;5075812;28;19908;-77
2023/05/13 08:24:22;;;;;;;;;;;;;;;16.42;45.20;100299.31;5075772;28;19908;-77
2023/05/13 08:26:47;;;;;;;;;;;;;;;16.51;45.06;100297.31;5074394;28;20395;-77
2023/05/13 08:29:14;;;;;;;;;;;;;;;16.64;44.90;100299.22;5075466;28;19916;-77
2023/05/13 08:31:40;;;;;;;;;;;;;;;16.63;43.99;100282.38;5075575;28;19908;-78
2023/05/13 08:34:05;;;;;;;;;;;;;;;16.66;43.98;100282.03;5075764;28;19915;-77
2023/05/13 08:36:30;;;;;;;;;;;;;;;16.88;44.35;100284.56;5075382;28;19970;-77
2023/05/13 08:38:55;;;;;;;;;;;;;;;16.99;43.29;100281.28;5074163;28;19908;-77
2023/05/13 08:41:21;;;;;;;;;;;;;;;17.09;42.22;100271.06;5075089;28;20380;-77
2023/05/13 08:43:47;;;;;;;;;;;;;;;17.22;42.00;100270.28;5075193;28;19905;-77
2023/05/13 08:46:15;;;;;;;;;;;;;;;17.39;42.98;100271.53;5075201;28;19916;-77
2023/05/13 08:48:41;;;;;;;;;;;;;;;17.55;41.65;100270.31;5075129;28;19912;-78
2023/05/13 08:51:07;;;;;;;;;;;;;;;17.58;40.13;100270.72;5073822;28;19916;-77
2023/05/13 08:53:33;;;;;;;;;;;;;;;17.72;40.77;100272.38;5074998;28;19917;-78
2023/05/13 08:55:59;;;;;;;;;;;;;;;17.88;39.99;100265.81;5073775;28;19908;-78
2023/05/13 08:58:24;;;;;;;;;;;;;;;17.97;39.88;100274.44;5075020;28;20308;-78
2023/05/13 09:00:50;;;;;;;;;;;;;;;18.11;38.95;100273.38;5075055;28;19966;-77
2023/05/13 09:03:15;;;;;;;;;;;;;;;18.26;39.33;100271.28;5074930;28;19995;-78
2023/05/13 09:05:42;;;;;;;;;;;;;;;18.41;38.32;100265.69;5073550;28;19999;-77
2023/05/13 09:08:08;;;;;;;;;;;;;;;18.58;36.75;100268.69;5074671;28;20378;-77
2023/05/13 09:10:33;;;;;;;;;;;;;;;18.72;36.66;100271.16;5074564;28;19932;-77
2023/05/13 09:13:00;;;;;;;;;;;;;;;18.95;37.41;100278.66;5074661;28;19908;-78
2023/05/13 09:15:26;;;;;;;;;;;;;;;19.04;35.93;100272.00;5073369;28;19908;-78
2023/05/13 09:17:57;;;;;;;;;;;;;;;19.13;33.04;100266.41;5074701;28;19965;-78
2023/05/13 09:20:24;;;;;;;;;;;;;;;19.34;33.92;100266.06;5074846;28;19908;-78
2023/05/13 09:22:55;;;;;;;;;;;;;;;19.61;33.18;100277.41;5074806;28;19908;-78
2023/05/13 09:25:24;;;;;;;;;;;;;;;19.79;34.66;100279.31;5074500;28;19944;-79
2023/05/13 09:27:57;;;;;;;;;;;;;;;19.76;34.55;100280.59;5074553;28;19955;-78
2023/05/13 09:30:29;;;;;;;;;;;;;;;19.86;32.57;100275.53;5074171;28;19943;-77
2023/05/13 09:33:14;;;;;;;;;;;;;;;20.05;33.73;100273.69;5074263;28;19916;-78
2023/05/13 09:35:40;;;;;;;;;;;;;;;20.17;32.22;100274.63;5074294;28;19901;-78
2023/05/13 09:38:12;;;;;;;;;;;;;;;20.35;34.03;100273.81;5074474;28;19912;-78
2023/05/13 09:40:37;;;;;;;;;;;;;;;20.42;32.36;100257.69;5074498;28;19912;-77
2023/05/13 09:43:04;;;;;;;;;;;;;;;20.61;33.33;100246.69;5074355;28;19915;-78
2023/05/13 09:45:29;;;;;;;;;;;;;;;20.79;31.67;100245.84;5074344;28;19908;-77
2023/05/13 09:47:56;;;;;;;;;;;;;;;21.01;33.00;100248.03;5072829;28;19908;-77
2023/05/13 09:50:21;;;;;;;;;;;;;;;21.25;30.26;100242.53;5074007;28;19908;-78
2023/05/13 09:52:46;;;;;;;;;;;;;;;21.42;31.65;100241.84;5073812;28;20041;-78
2023/05/13 09:55:11;;;;;;;;;;;;;;;21.63;32.33;100245.88;5072547;28;20290;-77
2023/05/13 09:57:37;;;;;;;;;;;;;;;21.74;32.22;100237.81;5074532;28;19970;-75
2023/05/13 10:00:04;;;;;;;;;;;;;;;21.80;32.01;100238.72;5074759;28;19908;-75
2023/05/13 10:02:30;;;;;;;;;;;;;;;21.94;30.07;100239.31;5074502;28;19908;-76
2023/05/13 10:04:55;;;;;;;;;;;;;;;22.12;30.60;100236.50;5073607;28;20308;-77
2023/05/13 10:07:24;;;;;;;;;;;;;;;22.38;30.66;100233.31;5074853;28;19962;-78
2023/05/13 10:10:01;;;;;;;;;;;;;;;22.64;31.17;100226.56;5074086;28;19984;-75
2023/05/13 10:12:27;;;;;;;;;;;;;;;22.77;28.00;100225.44;5074024;28;19916;-75
2023/05/13 10:14:53;;;;;;;;;;;;;;;22.86;30.05;100228.59;5073764;28;19908;-76
2023/05/13 10:17:23;;;;;;;;;;;;;;;22.97;28.52;100225.84;5073716;28;19912;-77
2023/05/13 10:19:49;;;;;;;;;;;;;;;22.92;30.91;100220.38;5073998;28;20313;-78
2023/05/13 10:22:17;;;;;;;;;;;;;;;22.92;29.90;100227.63;5073791;28;19915;-77
2023/05/13 10:24:43;;;;;;;;;;;;;;;23.21;28.97;100223.03;5073813;28;20003;-77
2023/05/13 10:27:09;;;;;;;;;;;;;;;23.42;29.73;100228.50;5073545;28;19951;-78
2023/05/13 10:29:36;;;;;;;;;;;;;;;23.62;27.97;100230.72;5073274;28;19912;-77
2023/05/13 10:32:02;;;;;;;;;;;;;;;23.87;28.41;100226.78;5073388;28;19932;-77
2023/05/13 10:34:27;;;;;;;;;;;;;;;23.88;28.12;100218.44;5072092;28;20041;-78
2023/05/13 10:36:53;;;;;;;;;;;;;;;23.78;29.71;100212.88;5071832;28;19985;-78
2023/05/13 10:39:30;;;;;;;;;;;;;;;23.68;29.98;100224.34;5073135;28;19978;-78
2023/05/13 10:42:10;;;;;;;;;;;;;;;23.64;28.86;100222.38;5072366;28;19909;-77
2023/05/13 10:44:35;;;;;;;;;;;;;;;23.85;29.11;100218.13;5073022;28;19915;-77
2023/05/13 10:47:01;;;;;;;;;;;;;;;24.16;28.41;100213.97;5073078;28;19909;-76
2023/05/13 10:49:31;;;;;;;;;;;;;;;24.30;27.82;100210.66;5072961;28;19908;-77
2023/05/13 10:52:02;;;;;;;;;;;;;;;24.32;27.72;100213.91;5072859;28;19908;-77
2023/05/13 10:54:35;;;;;;;;;;;;;;;24.44;28.90;100200.28;5072597;28;19931;-76
2023/05/13 10:57:01;;;;;;;;;;;;;;;24.59;26.45;100213.97;5072552;28;19912;-77
2023/05/13 10:59:29;;;;;;;;;;;;;;;24.66;26.04;100214.59;5072896;28;19914;-77
2023/05/13 11:01:54;;;;;;;;;;;;;;;24.71;25.01;100213.84;5071242;28;19916;-77
2023/05/13 11:04:20;;;;;;;;;;;;;;;24.84;28.52;100216.13;5072463;28;19916;-77
2023/05/13 11:06:46;;;;;;;;;;;;;;;25.00;26.57;100217.13;5071109;28;20363;-77
2023/05/13 11:09:28;;;;;;;;;;;;;;;25.08;25.84;100216.66;5072499;28;20392;-78
2023/05/13 11:11:55;;;;;;;;;;;;;;;25.04;27.24;100215.53;5072821;28;19908;-77
2023/05/13 11:14:21;;;;;;;;;;;;;;;25.02;27.59;100212.28;5072737;28;19912;-77
2023/05/13 11:17:06;;;;;;;;;;;;;;;25.19;24.84;100217.53;5072620;28;19913;-77
2023/05/13 11:19:33;;;;;;;;;;;;;;;25.23;25.89;100205.97;5072505;28;19955;-77
2023/05/13 11:22:09;;;;;;;;;;;;;;;25.39;26.20;100203.41;5071291;28;19999;-78
2023/05/13 11:24:35;;;;;;;;;;;;;;;25.46;27.30;100199.41;5071035;28;20300;-78
2023/05/13 11:27:12;;;;;;;;;;;;;;;25.57;26.98;100194.88;5071900;28;19909;-76
2023/05/13 11:29:40;;;;;;;;;;;;;;;25.46;26.37;100193.19;5072098;28;19916;-76
2023/05/13 11:32:05;;;;;;;;;;;;;;;25.51;27.19;100195.91;5072159;28;19909;-78
2023/05/13 11:34:31;;;;;;;;;;;;;;;25.63;27.59;100196.53;5072496;28;19915;-76
2023/05/13 11:37:06;;;;;;;;;;;;;;;25.76;26.34;100201.50;5071891;28;19919;-76
2023/05/13 11:39:31;;;;;;;;;;;;;;;25.88;27.37;100199.41;5072140;28;19915;-77
2023/05/13 11:42:00;;;;;;;;;;;;;;;26.07;26.43;100207.09;5072208;28;19904;-77
2023/05/13 11:44:25;;;;;;;;;;;;;;;26.12;25.49;100204.41;5072239;28;19915;-78
2023/05/13 11:46:50;;;;;;;;;;;;;;;26.09;25.69;100197.66;5072264;28;19913;-77
2023/05/13 11:49:28;;;;;;;;;;;;;;;26.14;27.18;100207.69;5070953;28;19916;-77
2023/05/13 11:51:53;;;;;;;;;;;;;;;26.16;26.49;100200.09;5072072;28;19908;-77
2023/05/13 11:54:19;;;;;;;;;;;;;;;26.09;28.10;100210.38;5070932;28;19969;-78
2023/05/13 11:56:44;;;;;;;;;;;;;;;26.24;27.75;100202.31;5060676;28;19929;-78
2023/05/13 11:59:13;;;;;;;;;;;;;;;26.23;26.62;100211.50;5070159;28;19913;-77
2023/05/13 12:01:38;;;;;;;;;;;;;;;26.05;26.80;100204.66;5071422;28;19966;-78
2023/05/13 12:04:04;;;;;;;;;;;;;;;26.10;25.74;100207.41;5072109;28;19912;-77
2023/05/13 12:06:30;;;;;;;;;;;;;;;26.27;27.05;100199.88;5069849;28;20478;-77
2023/05/13 12:08:55;;;;;;;;;;;;;;;26.30;27.62;100193.13;5071945;28;19913;-77
2023/05/13 12:11:21;;;;;;;;;;;;;;;26.43;27.26;100183.72;5065879;28;19962;-78
2023/05/13 12:13:46;;;;;;;;;;;;;;;26.58;26.55;100181.03;5069444;28;19970;-77
2023/05/13 12:16:11;;;;;;;;;;;;;;;26.56;27.17;100173.19;5064535;28;19916;-77
2023/05/13 12:18:37;;;;;;;;;;;;;;;26.76;27.00;100172.44;5067770;28;19934;-76
2023/05/13 12:21:12;;;;;;;;;;;;;;;26.75;26.43;100178.09;5069620;28;19943;-76
2023/05/13 12:23:38;;;;;;;;;;;;;;;26.68;25.78;100175.63;5069431;28;19912;-77
2023/05/13 12:26:06;;;;;;;;;;;;;;;26.80;26.13;100175.41;5071578;28;20010;-77
2023/05/13 12:28:32;;;;;;;;;;;;;;;26.77;25.73;100178.66;5068586;28;19921;-77
2023/05/13 12:30:58;;;;;;;;;;;;;;;26.84;25.51;100169.19;5071001;28;19916;-77
2023/05/13 12:33:24;;;;;;;;;;;;;;;26.94;24.95;100167.56;5069700;28;19995;-77
2023/05/13 12:35:51;;;;;;;;;;;;;;;26.90;25.57;100159.97;5056675;28;19905;-78